Time;durP1;ratioP1;P1;durP2;ratioP2;P2;SDS_P1;SDS_P2;PMS_P1;PMS_P2;Temp;Humidity;BMP_temperature;BMP_pressure;BME280_temperature;BME280_humidity;BME280_pressure;Samples;Min_cycle;Max_cycle;Signal;HPM_P1;HPM_P2
2022/07/26 00:01:11;;;;;;;1999.90;999.90;;;;;;;17.73;100.00;98900.78;5065327;28;20055;-51
2022/07/26 00:03:55;;;;;;;1999.90;999.90;;;;;;;17.74;100.00;98890.13;5055515;28;20056;-53
2022/07/26 00:06:40;;;;;;;1999.90;999.90;;;;;;;17.79;100.00;98883.69;5067120;28;20087;-52
2022/07/26 00:09:24;;;;;;;1999.90;999.90;;;;;;;17.75;100.00;98881.22;5054499;28;20121;-52
2022/07/26 00:12:09;;;;;;;1999.90;999.90;;;;;;;17.62;100.00;98871.56;5059321;28;20054;-52
2022/07/26 00:14:53;;;;;;;1999.90;999.90;;;;;;;17.73;100.00;98861.91;5056187;28;20056;-53
2022/07/26 00:17:38;;;;;;;1999.90;999.90;;;;;;;17.61;100.00;98856.63;5061136;28;20063;-52
2022/07/26 00:20:23;;;;;;;1999.90;999.90;;;;;;;17.55;100.00;98854.38;5054826;28;20049;-52
2022/07/26 00:23:07;;;;;;;1999.90;999.90;;;;;;;17.46;100.00;98858.53;5058774;28;20041;-52
2022/07/26 00:25:52;;;;;;;1999.90;999.90;;;;;;;17.60;100.00;98860.22;5062784;28;20055;-52
2022/07/26 00:28:37;;;;;;;1999.90;999.90;;;;;;;17.51;100.00;98846.66;5054160;28;20490;-52
2022/07/26 00:31:22;;;;;;;1999.90;999.90;;;;;;;17.37;100.00;98859.16;5064350;28;20041;-52
2022/07/26 00:34:06;;;;;;;1999.90;999.90;;;;;;;17.52;100.00;98851.03;5060341;28;20051;-53
2022/07/26 00:36:51;;;;;;;1999.90;999.90;;;;;;;17.53;100.00;98852.72;5064785;28;20052;-53
2022/07/26 00:39:35;;;;;;;1999.90;999.90;;;;;;;17.52;100.00;98860.75;5061833;28;20056;-52
2022/07/26 00:42:20;;;;;;;1999.90;999.90;;;;;;;17.59;100.00;98862.03;5058883;28;20059;-52
2022/07/26 00:45:07;;;;;;;1999.90;999.90;;;;;;;17.57;100.00;98858.63;5062823;28;20083;-52
2022/07/26 00:47:51;;;;;;;1999.90;999.90;;;;;;;17.52;100.00;98845.72;5061722;28;20395;-52
2022/07/26 00:50:36;;;;;;;1999.90;999.90;;;;;;;17.62;100.00;98837.16;5056831;28;20075;-52
2022/07/26 00:53:22;;;;;;;1999.90;999.90;;;;;;;17.61;100.00;98853.97;5058770;28;20094;-52
2022/07/26 00:56:06;;;;;;;1999.90;999.90;;;;;;;17.61;100.00;98840.72;5063835;28;20052;-52
2022/07/26 00:58:51;;;;;;;1999.90;999.90;;;;;;;17.67;100.00;98837.66;5061306;28;20064;-51
2022/07/26 01:01:35;;;;;;;1999.90;999.90;;;;;;;17.58;100.00;98833.00;5059982;28;20127;-52
2022/07/26 01:04:20;;;;;;;1999.90;999.90;;;;;;;17.46;100.00;98816.19;5060679;28;20502;-52
2022/07/26 01:07:05;;;;;;;1999.90;999.90;;;;;;;17.59;100.00;98822.31;5059526;28;20148;-52
2022/07/26 01:09:50;;;;;;;1999.90;999.90;;;;;;;17.64;100.00;98827.28;5065630;28;20100;-52
2022/07/26 01:12:35;;;;;;;1999.90;999.90;;;;;;;17.64;100.00;98822.84;5058958;28;20048;-52
2022/07/26 01:15:20;;;;;;;1999.90;999.90;;;;;;;17.66;100.00;98822.75;5064805;28;20106;-52
2022/07/26 01:18:04;;;;;;;1999.90;999.90;;;;;;;17.63;100.00;98822.94;5057373;28;20044;-51
2022/07/26 01:20:51;;;;;;;1999.90;999.90;;;;;;;17.61;100.00;98823.03;5058203;28;20055;-51
2022/07/26 01:23:36;;;;;;;1999.90;999.90;;;;;;;17.64;100.00;98811.41;5066106;28;20415;-52
2022/07/26 01:26:20;;;;;;;1999.90;999.90;;;;;;;17.63;100.00;98809.72;5064114;28;20044;-52
2022/07/26 01:29:04;;;;;;;1999.90;999.90;;;;;;;17.63;100.00;98805.25;5063535;28;20079;-52
2022/07/26 01:31:51;;;;;;;1999.90;999.90;;;;;;;17.57;100.00;98803.03;5062770;28;20055;-53
2022/07/26 01:34:35;;;;;;;1999.90;999.90;;;;;;;17.59;100.00;98801.16;5055789;28;20059;-52
2022/07/26 01:37:20;;;;;;;1999.90;999.90;;;;;;;17.64;100.00;98814.88;5054893;28;20045;-52
2022/07/26 01:40:05;;;;;;;1999.90;999.90;;;;;;;17.69;100.00;98809.28;5066694;28;20184;-52
2022/07/26 01:42:49;;;;;;;1999.90;999.90;;;;;;;17.77;100.00;98803.47;5063798;28;20052;-51
2022/07/26 01:45:33;;;;;;;1999.90;999.90;;;;;;;17.88;100.00;98807.06;5057941;28;20642;-52
2022/07/26 01:48:18;;;;;;;1999.90;999.90;;;;;;;17.92;100.00;98803.25;5061577;28;20048;-52
2022/07/26 01:51:03;;;;;;;1999.90;999.90;;;;;;;18.03;100.00;98798.97;5057329;28;20065;-52
2022/07/26 01:53:47;;;;;;;1999.90;999.90;;;;;;;18.03;100.00;98804.28;5058271;28;20056;-52
2022/07/26 01:56:31;;;;;;;1999.90;999.90;;;;;;;18.10;100.00;98800.22;5052936;28;20438;-52
2022/07/26 01:59:16;;;;;;;1999.90;999.90;;;;;;;18.14;100.00;98796.41;5052600;28;20049;-52
2022/07/26 02:02:01;;;;;;;1999.90;999.90;;;;;;;18.20;100.00;98803.94;5051298;28;20106;-52
2022/07/26 02:04:57;;;;;;;1999.90;999.90;;;;;;;18.21;100.00;98800.31;5052967;28;20431;-52
2022/07/26 02:07:42;;;;;;;1999.90;999.90;;;;;;;18.26;100.00;98792.03;5051598;28;20044;-52
2022/07/26 02:10:59;;;;;;;1999.90;999.90;;;;;;;18.27;100.00;98789.28;5056116;28;20075;-52
2022/07/26 02:13:38;;;;;;;1999.90;999.90;;;;;;;18.33;100.00;98791.47;5056741;28;20052;-51
2022/07/26 02:16:22;;;;;;;1999.90;999.90;;;;;;;18.30;100.00;98791.69;5053706;28;20056;-53
2022/07/26 02:19:08;;;;;;;1999.90;999.90;;;;;;;18.25;100.00;98782.38;5063854;28;20056;-53
2022/07/26 02:21:53;;;;;;;1999.90;999.90;;;;;;;18.29;100.00;98784.69;5059128;28;20102;-52
2022/07/26 02:24:38;;;;;;;1999.90;999.90;;;;;;;18.28;100.00;98769.75;5059823;28;20775;-52
2022/07/26 02:27:22;;;;;;;1999.90;999.90;;;;;;;18.31;100.00;98774.00;5063911;28;20052;-52
2022/07/26 02:30:07;;;;;;;1999.90;999.90;;;;;;;18.20;100.00;98772.13;5057557;28;20055;-52
2022/07/26 02:32:51;;;;;;;1999.90;999.90;;;;;;;18.20;100.00;98774.78;5062135;28;20113;-52
2022/07/26 02:35:36;;;;;;;1999.90;999.90;;;;;;;18.24;100.00;98773.59;5052835;28;20052;-52
2022/07/26 02:38:20;;;;;;;1999.90;999.90;;;;;;;18.27;100.00;98770.72;5058407;28;20052;-53
2022/07/26 02:41:05;;;;;;;1999.90;999.90;;;;;;;18.25;100.00;98771.78;5064849;28;20813;-52
2022/07/26 02:43:49;;;;;;;1999.90;999.90;;;;;;;18.19;100.00;98767.78;5055384;28;20097;-52
2022/07/26 02:46:34;;;;;;;1999.90;999.90;;;;;;;18.28;100.00;98769.75;5054852;28;20075;-52
2022/07/26 02:49:19;;;;;;;1999.90;999.90;;;;;;;18.35;100.00;98780.75;5055788;28;20128;-52
2022/07/26 02:52:04;;;;;;;1999.90;999.90;;;;;;;18.39;100.00;98787.50;5057989;28;20049;-51
2022/07/26 02:54:48;;;;;;;1999.90;999.90;;;;;;;18.42;100.00;98788.13;5060682;28;20364;-51
2022/07/26 02:57:32;;;;;;;1999.90;999.90;;;;;;;18.52;100.00;98798.06;5061121;28;20139;-52
2022/07/26 03:00:20;;;;;;;1999.90;999.90;;;;;;;18.51;100.00;98797.22;5053963;28;20053;-52
2022/07/26 03:03:06;;;;;;;1999.90;999.90;;;;;;;18.42;100.00;98796.09;5055726;28;20053;-52
2022/07/26 03:05:50;;;;;;;1999.90;999.90;;;;;;;18.44;100.00;98794.19;5058729;28;20098;-52
2022/07/26 03:08:34;;;;;;;1999.90;999.90;;;;;;;18.55;100.00;98806.63;5056742;28;20052;-52
2022/07/26 03:11:19;;;;;;;1999.90;999.90;;;;;;;18.64;100.00;98811.28;5052128;28;20056;-53
2022/07/26 03:14:03;;;;;;;1999.90;999.90;;;;;;;18.64;100.00;98798.00;5060318;28;20099;-53
2022/07/26 03:16:48;;;;;;;1999.90;999.90;;;;;;;18.68;100.00;98804.78;5060701;28;20111;-52
2022/07/26 03:19:32;;;;;;;1999.90;999.90;;;;;;;18.71;100.00;98798.41;5051620;28;20045;-53
2022/07/26 03:22:17;;;;;;;1999.90;999.90;;;;;;;18.71;100.00;98809.00;5060612;28;20382;-52
2022/07/26 03:25:02;;;;;;;1999.90;999.90;;;;;;;18.65;100.00;98801.50;5062732;28;20040;-53
2022/07/26 03:27:46;;;;;;;1999.90;999.90;;;;;;;18.64;100.00;98813.91;5056635;28;20051;-53
2022/07/26 03:30:31;;;;;;;1999.90;999.90;;;;;;;18.48;100.00;98831.06;5053943;28;20097;-52
2022/07/26 03:33:16;;;;;;;1999.90;999.90;;;;;;;18.51;100.00;98850.25;5061744;28;20091;-53
2022/07/26 03:36:00;;;;;;;1999.90;999.90;;;;;;;18.52;100.00;98843.97;5058496;28;20394;-53
2022/07/26 03:38:45;;;;;;;1999.90;999.90;;;;;;;18.52;100.00;98859.03;5060860;28;20064;-52
2022/07/26 03:41:30;;;;;;;1999.90;999.90;;;;;;;18.51;100.00;98866.16;5057160;28;20075;-53
2022/07/26 03:44:14;;;;;;;1999.90;999.90;;;;;;;18.53;100.00;98860.75;5061570;28;20044;-52
2022/07/26 03:46:58;;;;;;;1999.90;999.90;;;;;;;18.52;100.00;98867.84;5057447;28;20079;-52
2022/07/26 03:49:43;;;;;;;1999.90;999.90;;;;;;;18.40;100.00;98874.91;5054986;28;20072;-52
2022/07/26 03:52:27;;;;;;;1999.90;999.90;;;;;;;18.49;100.00;98875.19;5058178;28;20049;-53
2022/07/26 03:58:15;;;;;;;;;;;;;;;18.62;100.00;98871.53;5054779;28;20082;-53
2022/07/26 04:01:00;;;;;;;1999.90;999.90;;;;;;;18.63;100.00;98878.53;5054158;28;19932;-52
2022/07/26 04:03:44;;;;;;;1999.90;999.90;;;;;;;18.61;100.00;98877.78;5055469;28;20045;-53
2022/07/26 04:06:29;;;;;;;1999.90;999.90;;;;;;;18.65;100.00;98875.75;5052918;28;20071;-52
2022/07/26 04:09:14;;;;;;;1999.90;999.90;;;;;;;18.60;100.00;98872.59;5055717;28;20098;-52
2022/07/26 04:11:58;;;;;;;1999.90;999.90;;;;;;;18.49;100.00;98864.56;5056108;28;20052;-52
2022/07/26 04:14:42;;;;;;;1999.90;999.90;;;;;;;18.61;100.00;98867.19;5054286;28;20052;-53
2022/07/26 04:17:27;;;;;;;1999.90;999.90;;;;;;;18.56;100.00;98872.00;5059341;28;20036;-54
2022/07/26 04:20:11;;;;;;;1999.90;999.90;;;;;;;18.43;100.00;98864.06;5053347;28;20044;-54
2022/07/26 04:22:56;;;;;;;1999.90;999.90;;;;;;;18.33;100.00;98870.13;5053860;28;20122;-54
2022/07/26 04:25:40;;;;;;;1999.90;999.90;;;;;;;18.30;100.00;98865.91;5055528;28;20132;-54
2022/07/26 04:28:27;;;;;;;1999.90;999.90;;;;;;;18.15;100.00;98865.19;5057554;28;20535;-54
2022/07/26 04:31:12;;;;;;;1999.90;999.90;;;;;;;18.02;100.00;98876.78;5051042;28;20122;-54
2022/07/26 04:33:57;;;;;;;1999.90;999.90;;;;;;;17.78;100.00;98887.25;5057104;28;20055;-54
2022/07/26 04:36:41;;;;;;;1999.90;999.90;;;;;;;17.74;100.00;98878.66;5051455;28;20067;-54
2022/07/26 04:39:25;;;;;;;1999.90;999.90;;;;;;;18.01;100.00;98888.34;5056058;28;20053;-54
2022/07/26 04:42:10;;;;;;;1999.90;999.90;;;;;;;17.94;100.00;98906.47;5054602;28;20060;-54
2022/07/26 04:44:54;;;;;;;1999.90;999.90;;;;;;;18.03;100.00;98902.31;5057487;28;20098;-54
2022/07/26 04:47:43;;;;;;;1999.90;999.90;;;;;;;17.88;100.00;98899.78;5053764;28;20048;-54
2022/07/26 04:50:28;;;;;;;1999.90;999.90;;;;;;;17.85;100.00;98921.19;5062584;28;20079;-54
2022/07/26 04:53:12;;;;;;;1999.90;999.90;;;;;;;17.84;100.00;98913.31;5064760;28;20045;-53
2022/07/26 04:55:56;;;;;;;1999.90;999.90;;;;;;;17.87;100.00;98898.06;5063763;28;20055;-54
2022/07/26 04:58:41;;;;;;;1999.90;999.90;;;;;;;17.87;100.00;98899.88;5063353;28;20049;-54
2022/07/26 05:01:26;;;;;;;1999.90;999.90;;;;;;;17.75;100.00;98904.19;5057902;28;20059;-55
2022/07/26 05:04:10;;;;;;;1999.90;999.90;;;;;;;17.66;100.00;98913.59;5064117;28;20140;-54
2022/07/26 05:07:01;;;;;;;1999.90;999.90;;;;;;;17.69;100.00;98923.16;5071774;28;20122;-54
2022/07/26 05:09:45;;;;;;;1999.90;999.90;;;;;;;17.71;100.00;98931.81;5063845;28;20152;-54
2022/07/26 05:12:30;;;;;;;1999.90;999.90;;;;;;;17.66;100.00;98932.13;5066061;28;20060;-53
2022/07/26 05:15:14;;;;;;;1999.90;999.90;;;;;;;17.74;100.00;98937.78;5065755;28;20048;-53
2022/07/26 05:18:07;;;;;;;1999.90;999.90;;;;;;;17.77;100.00;98943.84;5068665;28;20059;-54
2022/07/26 05:20:52;;;;;;;1999.90;999.90;;;;;;;17.69;100.00;98952.28;5058794;28;20156;-55
2022/07/26 05:23:37;;;;;;;1999.90;999.90;;;;;;;17.78;100.00;98969.34;5057836;28;20121;-53
2022/07/26 05:26:21;;;;;;;1999.90;999.90;;;;;;;17.83;100.00;98978.69;5066153;28;20128;-54
2022/07/26 05:29:05;;;;;;;1999.90;999.90;;;;;;;17.85;100.00;98986.53;5065935;28;20056;-54
2022/07/26 05:31:50;;;;;;;1999.90;999.90;;;;;;;18.01;100.00;98984.56;5069463;28;20466;-53
2022/07/26 05:34:34;;;;;;;1999.90;999.90;;;;;;;18.01;100.00;98984.56;5060669;28;20690;-53
2022/07/26 05:37:19;;;;;;;1999.90;999.90;;;;;;;18.09;100.00;98997.25;5053865;28;20078;-54
2022/07/26 05:40:04;;;;;;;1999.90;999.90;;;;;;;18.18;100.00;99010.72;5065919;28;20723;-54
2022/07/26 05:42:49;;;;;;;1999.90;999.90;;;;;;;18.20;100.00;99013.28;5066766;28;20045;-53
2022/07/26 05:45:33;;;;;;;1999.90;999.90;;;;;;;18.23;100.00;99026.28;5062330;28;20629;-53
2022/07/26 05:48:17;;;;;;;1999.90;999.90;;;;;;;18.35;100.00;99036.06;5059951;28;20527;-52
2022/07/26 05:51:02;;;;;;;1999.90;999.90;;;;;;;18.39;100.00;99050.81;5053058;28;20068;-53
2022/07/26 05:53:47;;;;;;;1999.90;999.90;;;;;;;18.57;100.00;99059.28;5055528;28;20072;-52
2022/07/26 05:56:31;;;;;;;1999.90;999.90;;;;;;;18.58;100.00;99058.31;5054854;28;20091;-53
2022/07/26 05:59:15;;;;;;;1999.90;999.90;;;;;;;18.63;100.00;99065.97;5059847;28;20727;-53
2022/07/26 06:02:00;;;;;;;1999.90;999.90;;;;;;;18.66;100.00;99060.44;5055672;28;20051;-53
2022/07/26 06:04:44;;;;;;;1999.90;999.90;;;;;;;18.76;100.00;99045.63;5054428;28;20059;-53
2022/07/26 06:07:29;;;;;;;1999.90;999.90;;;;;;;18.80;100.00;99043.59;5056290;28;20102;-52
2022/07/26 06:10:13;;;;;;;1999.90;999.90;;;;;;;18.96;100.00;99048.66;5052216;28;20048;-52
2022/07/26 06:12:59;;;;;;;1999.90;999.90;;;;;;;18.88;100.00;99046.53;5050438;28;20059;-52
2022/07/26 06:15:44;;;;;;;1999.90;999.90;;;;;;;18.93;100.00;99041.75;5050571;28;20061;-52
2022/07/26 06:18:29;;;;;;;1999.90;999.90;;;;;;;18.99;100.00;99046.63;5052210;28;20511;-53
2022/07/26 06:21:13;;;;;;;1999.90;999.90;;;;;;;19.03;100.00;99053.41;5043062;28;20852;-52
2022/07/26 06:23:58;;;;;;;1999.90;999.90;;;;;;;19.17;100.00;99054.22;5048535;28;20078;-52
2022/07/26 06:26:43;;;;;;;1999.90;999.90;;;;;;;19.06;100.00;99069.09;5053545;28;20152;-53
2022/07/26 06:29:28;;;;;;;1999.90;999.90;;;;;;;19.25;100.00;99065.97;5053150;28;20118;-52
2022/07/26 06:32:12;;;;;;;1999.90;999.90;;;;;;;19.23;100.00;99078.50;5051495;28;20051;-52
2022/07/26 06:34:57;;;;;;;1999.90;999.90;;;;;;;19.25;100.00;99071.28;5048042;28;20084;-53
2022/07/26 06:37:42;;;;;;;1999.90;999.90;;;;;;;19.35;100.00;99068.81;5050669;28;20573;-53
2022/07/26 06:40:27;;;;;;;1999.90;999.90;;;;;;;19.38;100.00;99079.22;5051666;28;20126;-53
2022/07/26 06:43:12;;;;;;;1999.90;999.90;;;;;;;19.52;100.00;99076.38;5047442;28;20071;-53
2022/07/26 06:45:56;;;;;;;1999.90;999.90;;;;;;;19.59;100.00;99069.66;5047984;28;20075;-52
2022/07/26 06:48:40;;;;;;;1999.90;999.90;;;;;;;19.55;100.00;99070.00;5044798;28;20052;-53
2022/07/26 06:51:25;;;;;;;1999.90;999.90;;;;;;;19.54;100.00;99074.47;5048489;28;20079;-52
2022/07/26 06:54:10;;;;;;;1999.90;999.90;;;;;;;19.63;100.00;99086.25;5051836;28;20178;-53
2022/07/26 06:56:54;;;;;;;1999.90;999.90;;;;;;;19.64;100.00;99089.78;5055675;28;21982;-52
2022/07/26 06:59:39;;;;;;;1999.90;999.90;;;;;;;19.90;100.00;99109.94;5054064;28;20059;-52
2022/07/26 07:02:23;;;;;;;1999.90;999.90;;;;;;;19.76;100.00;99118.06;5058002;28;20104;-52
2022/07/26 07:05:08;;;;;;;1999.90;999.90;;;;;;;19.83;100.00;99129.97;5057814;28;20059;-52
2022/07/26 07:07:52;;;;;;;1999.90;999.90;;;;;;;19.64;100.00;99132.28;5051766;28;20072;-52
2022/07/26 07:10:38;;;;;;;1999.90;999.90;;;;;;;19.52;100.00;99142.78;5057072;28;20045;-52
2022/07/26 07:13:22;;;;;;;1999.90;999.90;;;;;;;19.58;100.00;99152.97;5056617;28;20439;-52
2022/07/26 07:16:07;;;;;;;1999.90;999.90;;;;;;;19.48;100.00;99151.94;5059141;28;20045;-52
2022/07/26 07:18:52;;;;;;;1999.90;999.90;;;;;;;19.52;100.00;99166.69;5060791;28;20677;-52
2022/07/26 07:21:36;;;;;;;1999.90;999.90;;;;;;;19.41;100.00;99161.31;5057124;28;20053;-51
2022/07/26 07:24:22;;;;;;;1999.90;999.90;;;;;;;19.28;100.00;99158.69;5068647;28;20048;-52
2022/07/26 07:27:07;;;;;;;1999.90;999.90;;;;;;;19.46;100.00;99142.38;5065561;28;20045;-52
2022/07/26 07:29:52;;;;;;;1999.90;999.90;;;;;;;19.25;100.00;99155.41;5063155;28;20052;-52
2022/07/26 07:32:36;;;;;;;1999.90;999.90;;;;;;;19.11;100.00;99161.69;5064356;28;20051;-54
2022/07/26 07:35:20;;;;;;;1999.90;999.90;;;;;;;19.13;100.00;99163.25;5064312;28;20067;-54
2022/07/26 07:38:05;;;;;;;1999.90;999.90;;;;;;;18.97;100.00;99159.97;5066767;28;20071;-54
2022/07/26 07:40:49;;;;;;;1999.90;999.90;;;;;;;18.83;100.00;99171.56;5059497;28;20053;-54
2022/07/26 07:43:33;;;;;;;1999.90;999.90;;;;;;;18.93;100.00;99185.03;5061632;28;20086;-54
2022/07/26 07:46:18;;;;;;;1999.90;999.90;;;;;;;18.80;100.00;99192.13;5062354;28;21539;-54
2022/07/26 07:49:02;;;;;;;1999.90;999.90;;;;;;;18.65;100.00;99189.56;5057873;28;20052;-55
2022/07/26 07:51:47;;;;;;;1999.90;999.90;;;;;;;18.85;100.00;99193.53;5063795;28;20045;-54
2022/07/26 07:54:31;;;;;;;1999.90;999.90;;;;;;;18.67;100.00;99203.53;5052655;28;20102;-55
2022/07/26 07:57:16;;;;;;;1999.90;999.90;;;;;;;18.67;100.00;99208.00;5055966;28;20060;-54
2022/07/26 08:00:00;;;;;;;1999.90;999.90;;;;;;;18.60;100.00;99212.03;5067130;28;20044;-54
2022/07/26 08:02:45;;;;;;;1999.90;999.90;;;;;;;18.74;100.00;99213.78;5062151;28;20562;-55
2022/07/26 08:05:30;;;;;;;1999.90;999.90;;;;;;;18.78;100.00;99216.09;5061540;28;20082;-54
2022/07/26 08:08:15;;;;;;;1999.90;999.90;;;;;;;18.88;100.00;99222.50;5063259;28;20047;-54
2022/07/26 08:11:01;;;;;;;1999.90;999.90;;;;;;;18.97;100.00;99223.66;5059193;28;20049;-55
2022/07/26 08:13:45;;;;;;;1999.90;999.90;;;;;;;18.88;100.00;99221.63;5065914;28;20047;-54
2022/07/26 08:16:29;;;;;;;1999.90;999.90;;;;;;;18.99;100.00;99239.50;5064870;28;20434;-55
2022/07/26 08:19:14;;;;;;;1999.90;999.90;;;;;;;18.86;100.00;99240.31;5061593;28;20056;-54
2022/07/26 08:21:58;;;;;;;1999.90;999.90;;;;;;;18.78;100.00;99269.16;5068590;28;20113;-55
2022/07/26 08:24:45;;;;;;;1999.90;999.90;;;;;;;18.54;100.00;99271.63;5069830;28;20106;-54
2022/07/26 08:27:29;;;;;;;1999.90;999.90;;;;;;;18.53;100.00;99280.53;5059324;28;20044;-53
2022/07/26 08:30:14;;;;;;;1999.90;999.90;;;;;;;18.56;100.00;99276.84;5065899;28;20204;-55
2022/07/26 08:32:58;;;;;;;1999.90;999.90;;;;;;;18.46;100.00;99292.50;5059331;28;20085;-54
2022/07/26 08:35:43;;;;;;;1999.90;999.90;;;;;;;18.43;100.00;99280.28;5063696;28;20045;-54
2022/07/26 08:38:27;;;;;;;1999.90;999.90;;;;;;;18.41;100.00;99276.88;5058199;28;20051;-54
2022/07/26 08:41:12;;;;;;;1999.90;999.90;;;;;;;18.34;100.00;99278.25;5067146;28;20059;-53
2022/07/26 08:44:07;;;;;;;1999.90;999.90;;;;;;;18.41;100.00;99282.19;5058715;28;20044;-53
2022/07/26 08:46:52;;;;;;;1999.90;999.90;;;;;;;18.45;100.00;99266.94;5051304;28;20120;-53
2022/07/26 08:49:36;;;;;;;1999.90;999.90;;;;;;;18.40;100.00;99261.09;5053148;28;20052;-53
2022/07/26 08:52:22;;;;;;;1999.90;999.90;;;;;;;18.49;100.00;99265.78;5053657;28;20225;-54
2022/07/26 08:55:06;;;;;;;1999.90;999.90;;;;;;;18.58;100.00;99265.16;5053416;28;20102;-54
2022/07/26 08:57:51;;;;;;;1999.90;999.90;;;;;;;18.58;100.00;99269.63;5053416;28;20091;-54
2022/07/26 09:00:36;;;;;;;1999.90;999.90;;;;;;;18.70;100.00;99274.09;5052247;28;20075;-53
2022/07/26 09:03:25;;;;;;;1999.90;999.90;;;;;;;18.73;100.00;99284.53;5054544;28;20063;-53
2022/07/26 09:06:14;;;;;;;1999.90;999.90;;;;;;;18.88;100.00;99277.34;5052603;28;20545;-53
2022/07/26 09:09:09;;;;;;;1999.90;999.90;;;;;;;19.05;100.00;99282.38;5054585;28;20107;-53
2022/07/26 09:11:55;;;;;;;1999.90;999.90;;;;;;;19.04;100.00;99287.78;5053675;28;20041;-53
2022/07/26 09:14:40;;;;;;;1999.90;999.90;;;;;;;19.11;100.00;99286.41;5054181;28;20072;-53
2022/07/26 09:17:41;;;;;;;1999.90;999.90;;;;;;;19.08;100.00;99300.75;5055238;28;20402;-53
2022/07/26 09:20:28;;;;;;;1999.90;999.90;;;;;;;19.24;100.00;99300.56;5052986;28;20101;-54
2022/07/26 09:23:12;;;;;;;1999.90;999.90;;;;;;;19.30;100.00;99299.25;5054553;28;20194;-53
2022/07/26 09:26:03;;;;;;;1999.90;999.90;;;;;;;19.49;100.00;99304.16;5055056;28;20079;-53
2022/07/26 09:29:04;;;;;;;1999.90;999.90;;;;;;;19.69;100.00;99308.09;5055936;28;20059;-53
2022/07/26 09:31:49;;;;;;;1999.90;999.90;;;;;;;19.71;100.00;99316.81;5057624;28;20036;-53
2022/07/26 09:34:33;;;;;;;1999.90;999.90;;;;;;;19.74;100.00;99313.94;5064277;28;20349;-52
2022/07/26 09:37:32;;;;;;;1999.90;999.90;;;;;;;19.55;100.00;99317.00;5059639;28;20059;-53
2022/07/26 09:40:18;;;;;;;1999.90;999.90;;;;;;;19.81;100.00;99325.81;5053121;28;20102;-52
2022/07/26 09:43:05;;;;;;;1999.90;999.90;;;;;;;19.97;100.00;99328.25;5054270;28;20423;-53
2022/07/26 09:46:02;;;;;;;1999.90;999.90;;;;;;;19.71;100.00;99328.28;5051221;28;20172;-53
2022/07/26 09:48:47;;;;;;;1999.90;999.90;;;;;;;19.99;100.00;99335.16;5053850;28;20052;-53
2022/07/26 09:51:35;;;;;;;1999.90;999.90;;;;;;;20.06;100.00;99333.75;5054155;28;20159;-53
2022/07/26 09:54:28;;;;;;;1999.90;999.90;;;;;;;20.15;100.00;99336.69;5056060;28;20074;-52
2022/07/26 09:57:18;;;;;;;1999.90;999.90;;;;;;;20.18;100.00;99344.44;5057200;28;20050;-53
2022/07/26 10:00:07;;;;;;;1999.90;999.90;;;;;;;20.36;100.00;99335.16;5053949;28;20136;-52
2022/07/26 10:02:52;;;;;;;1999.90;999.90;;;;;;;20.48;100.00;99334.25;5056612;28;20502;-53
2022/07/26 10:05:38;;;;;;;1999.90;999.90;;;;;;;20.50;100.00;99337.63;5056458;28;20056;-52
2022/07/26 10:08:22;;;;;;;1999.90;999.90;;;;;;;20.65;100.00;99345.50;5059539;28;20068;-53
2022/07/26 10:11:08;;;;;;;1999.90;999.90;;;;;;;20.82;100.00;99347.75;5064583;28;20106;-53
2022/07/26 10:13:53;;;;;;;1999.90;999.90;;;;;;;20.97;100.00;99351.09;5064067;28;20062;-52
2022/07/26 10:16:37;;;;;;;1999.90;999.90;;;;;;;21.06;100.00;99355.72;5061869;28;20068;-51
2022/07/26 10:19:40;;;;;;;1999.90;999.90;;;;;;;21.01;100.00;99355.22;5055875;28;20189;-53
2022/07/26 10:22:30;;;;;;;1999.90;999.90;;;;;;;21.47;100.00;99357.06;5053588;28;20048;-52
2022/07/26 10:25:18;;;;;;;1999.90;999.90;;;;;;;21.66;100.00;99357.31;5054551;28;20040;-52
2022/07/26 10:28:02;;;;;;;1999.90;999.90;;;;;;;21.49;100.00;99362.28;5052772;28;20048;-52
2022/07/26 10:30:47;;;;;;;1999.90;999.90;;;;;;;21.53;100.00;99367.25;5053564;28;20045;-52
2022/07/26 10:33:43;;;;;;;1999.90;999.90;;;;;;;21.36;100.00;99371.19;5058567;28;20048;-51
2022/07/26 10:36:32;;;;;;;1999.90;999.90;;;;;;;21.78;100.00;99371.50;5058308;28;20136;-51
2022/07/26 10:39:21;;;;;;;1999.90;999.90;;;;;;;21.99;100.00;99368.97;5058426;28;20053;-52
2022/07/26 10:42:08;;;;;;;1999.90;999.90;;;;;;;22.01;100.00;99368.84;5060720;28;20056;-52
2022/07/26 10:45:19;;;;;;;1999.90;999.90;;;;;;;22.09;100.00;99355.75;5060850;28;20094;-53
2022/07/26 10:48:17;;;;;;;1999.90;999.90;;;;;;;22.39;100.00;99368.47;5061653;28;20072;-52
2022/07/26 10:51:30;;;;;;;1999.90;999.90;;;;;;;22.73;100.00;99363.06;5058817;28;20059;-53
2022/07/26 10:54:16;;;;;;;1999.90;999.90;;;;;;;22.60;100.00;99371.22;5059801;28;20051;-52
2022/07/26 10:57:01;;;;;;;1999.90;999.90;;;;;;;22.76;100.00;99362.81;5059834;28;20129;-53
2022/07/26 10:59:45;;;;;;;1999.90;999.90;;;;;;;22.84;100.00;99366.50;5057539;28;20129;-52
2022/07/26 11:02:31;;;;;;;1999.90;999.90;;;;;;;22.77;100.00;99373.34;5057818;28;20055;-52
2022/07/26 11:05:17;;;;;;;1999.90;999.90;;;;;;;22.73;100.00;99371.91;5063997;28;20079;-53
2022/07/26 11:08:07;;;;;;;1999.90;999.90;;;;;;;22.69;100.00;99372.31;5061684;28;20079;-52
2022/07/26 11:10:52;;;;;;;1999.90;999.90;;;;;;;23.04;100.00;99372.06;5054878;28;20048;-53
2022/07/26 11:13:37;;;;;;;1999.90;999.90;;;;;;;22.71;100.00;99368.50;5056572;28;20107;-52
2022/07/26 11:16:22;;;;;;;1999.90;999.90;;;;;;;22.68;100.00;99362.56;5065198;28;20087;-52
2022/07/26 11:19:18;;;;;;;1999.90;999.90;;;;;;;22.97;100.00;99378.88;5071370;28;20068;-51
2022/07/26 11:22:02;;;;;;;1999.90;999.90;;;;;;;23.16;100.00;99370.19;5066066;28;20052;-51
2022/07/26 11:24:47;;;;;;;1999.90;999.90;;;;;;;22.78;100.00;99371.50;5067697;28;20138;-52
2022/07/26 11:27:31;;;;;;;1999.90;999.90;;;;;;;22.95;100.00;99371.03;5067553;28;20078;-51
2022/07/26 11:30:16;;;;;;;1999.90;999.90;;;;;;;22.89;100.00;99373.31;5064552;28;20469;-52
2022/07/26 11:33:00;;;;;;;1999.90;999.90;;;;;;;23.09;100.00;99364.50;5061141;28;20552;-53
2022/07/26 11:35:51;;;;;;;1999.90;999.90;;;;;;;23.02;100.00;99364.19;5067859;28;20059;-53
2022/07/26 11:38:52;;;;;;;1999.90;999.90;;;;;;;23.07;100.00;99369.13;5065911;28;20482;-53
2022/07/26 11:41:37;;;;;;;1999.90;999.90;;;;;;;22.84;100.00;99371.84;5057807;28;20075;-53
2022/07/26 11:44:22;;;;;;;1999.90;999.90;;;;;;;22.65;100.00;99353.00;5056140;28;20047;-53
2022/07/26 11:47:19;;;;;;;1999.90;999.90;;;;;;;22.91;100.00;99360.66;5056954;28;20593;-53
2022/07/26 11:50:06;;;;;;;1999.90;999.90;;;;;;;23.23;100.00;99363.34;5057205;28;20047;-52
2022/07/26 11:52:51;;;;;;;1999.90;999.90;;;;;;;23.39;100.00;99362.91;5066685;28;20097;-52
2022/07/26 11:55:36;;;;;;;1999.90;999.90;;;;;;;23.06;100.00;99362.94;5062139;28;20060;-53
2022/07/26 11:58:20;;;;;;;1999.90;999.90;;;;;;;23.34;100.00;99360.63;5051730;28;20094;-52
2022/07/26 12:01:07;;;;;;;1999.90;999.90;;;;;;;23.18;100.00;99365.56;5054313;28;20055;-53
2022/07/26 12:03:53;;;;;;;1999.90;999.90;;;;;;;23.05;100.00;99355.06;5061774;28;20069;-53
2022/07/26 12:06:38;;;;;;;1999.90;999.90;;;;;;;22.85;100.00;99360.22;5062680;28;20058;-50
2022/07/26 12:09:37;;;;;;;1999.90;999.90;;;;;;;23.08;100.00;99357.50;5068397;28;20055;-53
2022/07/26 12:12:27;;;;;;;1999.90;999.90;;;;;;;22.84;100.00;99355.84;5068409;28;20102;-51